Time;durP1;ratioP1;P1;durP2;ratioP2;P2;SDS_P1;SDS_P2;PMS_P1;PMS_P2;Temp;Humidity;BMP_temperature;BMP_pressure;BME280_temperature;BME280_humidity;BME280_pressure;Samples;Min_cycle;Max_cycle;Signal;HPM_P1;HPM_P2
2023/01/02 00:02:12;;;;;;;1.12;0.82;;;;;;;23.81;39.90;99754.69;1799313;79;28804;-52
2023/01/02 00:05:01;;;;;;;1.45;0.90;;;;;;;23.81;39.87;99764.81;1805529;79;28366;-53
2023/01/02 00:07:49;;;;;;;1.00;1.00;;;;;;;23.82;39.87;99756.90;1807888;79;28301;-56
2023/01/02 00:10:37;;;;;;;1.20;0.75;;;;;;;23.81;39.85;99760.70;1796753;78;28137;-54
2023/01/02 00:13:26;;;;;;;0.60;0.60;;;;;;;23.81;39.85;99747.83;1852787;77;28152;-50
2023/01/02 00:16:14;;;;;;;1.20;0.75;;;;;;;23.80;39.82;99758.52;1855626;77;28161;-51
2023/01/02 00:19:03;;;;;;;2.33;1.02;;;;;;;23.82;39.83;99755.53;1844294;76;28233;-51
2023/01/02 00:21:52;;;;;;;0.88;0.88;;;;;;;23.82;39.82;99750.89;1868050;76;28181;-49
2023/01/02 00:24:40;;;;;;;1.20;1.10;;;;;;;23.83;39.79;99747.58;1834975;77;28261;-50
2023/01/02 00:27:28;;;;;;;0.80;0.80;;;;;;;23.81;39.79;99732.73;1868149;76;28085;-53
2023/01/02 00:30:17;;;;;;;0.80;0.70;;;;;;;23.82;39.76;99754.16;1842871;77;28061;-48
2023/01/02 00:33:06;;;;;;;0.90;0.90;;;;;;;23.82;39.74;99747.30;1859237;76;28048;-50
2023/01/02 00:35:55;;;;;;;1.60;1.00;;;;;;;23.83;39.63;99733.86;1853914;75;28120;-53
2023/01/02 00:38:44;;;;;;;0.80;0.80;;;;;;;23.83;39.63;99733.86;1855638;76;28138;-52
2023/01/02 00:41:32;;;;;;;1.00;0.90;;;;;;;23.82;39.72;99730.84;1853383;77;28179;-50
2023/01/02 00:44:21;;;;;;;0.90;0.90;;;;;;;23.82;39.73;99737.17;1866277;75;28212;-51
2023/01/02 00:47:09;;;;;;;0.70;0.70;;;;;;;23.81;39.69;99731.90;1867503;76;28074;-50
2023/01/02 00:49:57;;;;;;;0.65;0.65;;;;;;;23.82;39.71;99739.91;1868149;76;28060;-49
2023/01/02 00:52:47;;;;;;;0.82;0.82;;;;;;;23.80;39.71;99729.72;1865597;76;28228;-52
2023/01/02 00:55:35;;;;;;;1.12;1.00;;;;;;;23.82;39.67;99728.09;1868408;76;28170;-52
2023/01/02 00:58:24;;;;;;;0.78;0.78;;;;;;;23.81;39.73;99719.02;1866252;76;28095;-51
2023/01/02 01:01:12;;;;;;;0.90;0.90;;;;;;;23.79;39.69;99713.47;1849956;76;28385;-50
2023/01/02 01:04:01;;;;;;;0.80;0.80;;;;;;;23.81;39.67;99708.05;1866891;76;28105;-51
2023/01/02 01:06:49;;;;;;;1.45;0.90;;;;;;;23.80;39.69;99703.66;1868679;75;28049;-52
2023/01/02 01:09:37;;;;;;;0.90;0.90;;;;;;;23.81;39.68;99692.97;1852607;75;28152;-52
2023/01/02 01:12:26;;;;;;;1.00;0.90;;;;;;;23.80;39.66;99690.47;1853777;75;28070;-51
2023/01/02 01:15:14;;;;;;;2.23;0.70;;;;;;;23.81;39.63;99688.00;1865960;76;28138;-47
2023/01/02 01:18:02;;;;;;;0.70;0.70;;;;;;;23.85;39.64;99691.97;1868260;76;28182;-46
2023/01/02 01:20:51;;;;;;;0.57;0.57;;;;;;;23.83;39.70;99689.44;1868269;76;28080;-46
2023/01/02 01:23:40;;;;;;;2.10;0.85;;;;;;;23.81;39.73;99676.50;1857769;76;28587;-44
2023/01/02 01:26:28;;;;;;;2.05;0.85;;;;;;;23.82;39.72;99674.07;1864901;76;28174;-45
2023/01/02 01:29:16;;;;;;;0.70;0.70;;;;;;;23.83;39.71;99676.25;1868194;76;28141;-47
2023/01/02 01:32:05;;;;;;;0.90;0.90;;;;;;;23.86;39.68;99679.91;1865351;76;28103;-47
2023/01/02 01:34:53;;;;;;;0.80;0.80;;;;;;;23.84;39.70;99679.31;1857843;75;28176;-45
2023/01/02 01:37:42;;;;;;;0.65;0.60;;;;;;;23.85;39.62;99666.72;1867980;76;28152;-49
2023/01/02 01:40:39;;;;;;;0.85;0.85;;;;;;;23.78;39.61;99663.81;1868505;76;28093;-46
2023/01/02 01:43:39;;;;;;;1.20;0.90;;;;;;;23.86;39.64;99668.92;1868715;76;31160;-46
2023/01/02 01:46:36;;;;;;;1.52;0.98;;;;;;;23.84;39.58;99666.44;1864946;75;28190;-47
2023/01/02 01:49:30;;;;;;;1.20;0.72;;;;;;;23.81;39.62;99678.41;1868653;75;28164;-47
2023/01/02 01:52:21;;;;;;;1.15;1.00;;;;;;;23.82;39.62;99673.23;1865723;75;28078;-46
2023/01/02 01:55:21;;;;;;;0.60;0.60;;;;;;;23.82;39.53;99672.70;1868425;76;28091;-45
2023/01/02 01:58:13;;;;;;;1.92;0.80;;;;;;;23.83;39.56;99671.61;1850993;76;28185;-46
2023/01/02 02:01:02;;;;;;;1.00;1.00;;;;;;;23.83;39.59;99666.13;1852723;75;28123;-47
2023/01/02 02:03:51;;;;;;;0.90;0.90;;;;;;;23.84;39.52;99666.97;1856320;77;28137;-45
2023/01/02 02:06:40;;;;;;;0.72;0.62;;;;;;;23.83;39.43;99667.49;1864761;76;28127;-46
2023/01/02 02:09:34;;;;;;;1.00;0.90;;;;;;;23.87;39.41;99681.59;1868625;76;28076;-47
2023/01/02 02:12:24;;;;;;;0.75;0.75;;;;;;;23.84;39.42;99680.68;1858311;76;28211;-47
2023/01/02 02:15:15;;;;;;;0.85;0.85;;;;;;;23.82;39.47;99686.95;1852284;76;28185;-45
2023/01/02 02:18:10;;;;;;;0.88;0.88;;;;;;;23.83;39.51;99683.11;1850411;77;28200;-47
2023/01/02 02:21:12;;;;;;;0.70;0.70;;;;;;;23.84;39.48;99683.42;1845822;77;28131;-47
2023/01/02 02:24:21;;;;;;;0.50;0.50;;;;;;;23.84;39.42;99679.31;1845157;77;28133;-45
2023/01/02 02:27:22;;;;;;;1.17;1.07;;;;;;;23.82;39.40;99678.19;1844013;76;28084;-46
2023/01/02 02:30:19;;;;;;;0.60;0.60;;;;;;;23.82;39.42;99675.98;1856596;77;28213;-47
2023/01/02 02:33:11;;;;;;;0.75;0.75;;;;;;;23.77;39.55;99671.20;1856222;77;28143;-44
2023/01/02 02:36:11;;;;;;;0.80;0.70;;;;;;;23.79;39.54;99684.67;1856622;77;28100;-49
2023/01/02 02:39:02;;;;;;;1.20;0.80;;;;;;;23.81;39.51;99697.61;1856722;77;28162;-44
2023/01/02 02:42:10;;;;;;;2.62;0.80;;;;;;;23.81;39.51;99696.23;1860301;75;28075;-46
2023/01/02 02:45:10;;;;;;;0.50;0.50;;;;;;;23.81;39.46;99697.61;1853344;76;28156;-45
2023/01/02 02:48:10;;;;;;;0.70;0.70;;;;;;;23.80;39.44;99694.59;1844701;77;28084;-47
2023/01/02 02:51:08;;;;;;;0.65;0.65;;;;;;;23.79;39.50;99706.61;1845649;77;28251;-48
2023/01/02 02:53:59;;;;;;;1.20;0.75;;;;;;;23.77;39.51;99693.67;1857308;76;28057;-47
2023/01/02 02:56:50;;;;;;;1.00;0.82;;;;;;;23.78;39.47;99710.45;1840367;76;28120;-48
2023/01/02 02:59:41;;;;;;;0.70;0.70;;;;;;;23.78;39.48;99694.80;1856472;76;28078;-46
2023/01/02 03:02:29;;;;;;;1.00;0.78;;;;;;;23.78;39.43;99689.88;1858180;76;28135;-45
2023/01/02 03:05:21;;;;;;;0.60;0.60;;;;;;;23.81;39.34;99703.09;1859598;76;28147;-45
2023/01/02 03:08:18;;;;;;;0.80;0.80;;;;;;;23.79;39.33;99700.59;1856600;77;28140;-48
2023/01/02 03:11:06;;;;;;;0.78;0.78;;;;;;;23.79;39.30;99702.50;1859052;76;28111;-45
2023/01/02 03:14:03;;;;;;;0.70;0.70;;;;;;;23.78;39.41;99698.11;1850791;76;28138;-45
2023/01/02 03:16:54;;;;;;;0.60;0.60;;;;;;;23.78;39.37;99694.80;1856454;77;28103;-45
2023/01/02 03:19:45;;;;;;;0.85;0.85;;;;;;;23.77;39.36;99690.41;1862821;76;28140;-46
2023/01/02 03:22:36;;;;;;;0.50;0.50;;;;;;;23.80;39.34;99692.68;1874046;75;28135;-46
2023/01/02 03:25:25;;;;;;;0.60;0.60;;;;;;;23.79;39.34;99681.92;1846146;76;28142;-46
2023/01/02 03:28:18;;;;;;;0.63;0.63;;;;;;;23.78;39.37;99683.02;1856576;77;28065;-47
2023/01/02 03:31:10;;;;;;;0.88;0.88;;;;;;;23.79;39.36;99680.03;1868188;76;28051;-48
2023/01/02 03:34:06;;;;;;;0.65;0.65;;;;;;;23.77;39.34;99691.77;1856600;77;28115;-47
2023/01/02 03:36:57;;;;;;;0.88;0.88;;;;;;;23.77;39.32;99693.67;1824343;76;28246;-49
2023/01/02 03:39:48;;;;;;;0.93;0.75;;;;;;;23.79;39.31;99681.40;1853190;76;28186;-46
2023/01/02 03:42:40;;;;;;;1.15;0.50;;;;;;;23.78;39.38;99683.02;1862479;76;28149;-47
2023/01/02 03:45:34;;;;;;;0.95;0.80;;;;;;;23.79;39.37;99670.95;1856488;77;28101;-46
2023/01/02 03:48:47;;;;;;;0.67;0.67;;;;;;;23.77;39.39;99670.36;1876833;75;28103;-47
2023/01/02 03:51:36;;;;;;;0.77;0.77;;;;;;;23.77;39.37;99668.46;1837111;77;28248;-45
2023/01/02 03:54:25;;;;;;;0.97;0.80;;;;;;;23.73;39.38;99663.16;1828298;77;28398;-46
2023/01/02 03:57:16;;;;;;;0.72;0.72;;;;;;;23.77;39.37;99660.23;1843566;77;28308;-45
2023/01/02 04:00:11;;;;;;;1.30;0.60;;;;;;;23.76;39.33;99670.05;1841952;77;28352;-45
2023/01/02 04:03:21;;;;;;;0.70;0.70;;;;;;;23.77;39.38;99671.73;1844189;77;28368;-44
2023/01/02 04:06:15;;;;;;;0.42;0.42;;;;;;;23.75;39.38;99665.66;1835785;77;28252;-47
2023/01/02 04:09:06;;;;;;;1.00;0.60;;;;;;;23.73;39.45;99667.27;1829538;77;28281;-48
2023/01/02 04:12:01;;;;;;;0.60;0.60;;;;;;;23.73;39.42;99673.29;1841037;77;28326;-47
2023/01/02 04:14:52;;;;;;;0.70;0.70;;;;;;;23.76;39.42;99668.67;1844753;77;31302;-47
2023/01/02 04:17:43;;;;;;;0.60;0.60;;;;;;;23.76;39.47;99670.05;1842171;77;28727;-45
2023/01/02 04:20:43;;;;;;;0.60;0.60;;;;;;;23.72;39.44;99662.00;1831016;77;28387;-47
2023/01/02 04:23:44;;;;;;;0.65;0.65;;;;;;;23.75;39.46;99668.39;1828641;77;28246;-45
2023/01/02 04:26:38;;;;;;;0.75;0.60;;;;;;;23.76;39.45;99664.56;1835029;77;28297;-45
2023/01/02 04:29:26;;;;;;;1.40;0.60;;;;;;;23.73;39.50;99660.42;1838855;77;28344;-49
2023/01/02 04:32:27;;;;;;;0.50;0.50;;;;;;;23.73;39.45;99655.46;1838628;77;28847;-46
2023/01/02 04:35:18;;;;;;;0.62;0.62;;;;;;;23.75;39.47;99669.77;1828362;77;28332;-47
2023/01/02 04:38:11;;;;;;;0.60;0.60;;;;;;;23.74;39.53;99665.34;1828611;77;28560;-47
2023/01/02 04:41:00;;;;;;;0.55;0.55;;;;;;;23.71;39.45;99648.82;1840067;77;28241;-50
2023/01/02 04:43:48;;;;;;;1.05;0.68;;;;;;;23.73;39.50;99650.81;1845121;77;28167;-49
2023/01/02 04:46:36;;;;;;;0.70;0.70;;;;;;;23.76;39.49;99652.22;1815825;78;28283;-47
2023/01/02 04:49:26;;;;;;;0.90;0.70;;;;;;;23.76;39.44;99652.22;1822683;77;28294;-46
2023/01/02 04:52:14;;;;;;;1.90;0.72;;;;;;;23.76;39.49;99654.96;1861969;76;28100;-48
2023/01/02 04:55:02;;;;;;;0.60;0.60;;;;;;;23.75;39.44;99651.94;1853990;76;28092;-46
2023/01/02 04:57:50;;;;;;;0.55;0.55;;;;;;;23.69;39.47;99640.53;1868891;76;28208;-46
2023/01/02 05:00:39;;;;;;;1.10;0.50;;;;;;;23.76;39.42;99645.36;1867591;76;28197;-44
2023/01/02 05:03:27;;;;;;;0.80;0.72;;;;;;;23.76;39.44;99635.77;1849702;76;28675;-45
2023/01/02 05:06:16;;;;;;;1.20;0.60;;;;;;;23.78;39.41;99659.70;1848257;76;31134;-45
2023/01/02 05:09:05;;;;;;;0.78;0.50;;;;;;;23.78;39.44;99654.22;1856972;75;28103;-46
2023/01/02 05:11:53;;;;;;;1.55;0.57;;;;;;;23.78;39.47;99651.47;1866428;76;28187;-46
2023/01/02 05:14:41;;;;;;;1.40;0.70;;;;;;;23.74;39.45;99666.72;1868718;76;28161;-47
2023/01/02 05:17:31;;;;;;;1.00;0.50;;;;;;;23.76;39.42;99662.66;1868673;76;28130;-48
2023/01/02 05:20:20;;;;;;;2.10;0.80;;;;;;;23.77;39.40;99658.02;1871019;76;28082;-47
2023/01/02 05:26:18;;;;;;;0.85;0.60;;;;;;;23.76;39.40;99667.31;1857545;76;28221;-44
2023/01/02 05:29:07;;;;;;;0.80;0.72;;;;;;;23.72;39.51;99668.34;1868077;76;28264;-48
2023/01/02 05:31:55;;;;;;;1.30;0.60;;;;;;;23.76;39.46;99674.16;1863505;76;28108;-48
2023/01/02 05:34:43;;;;;;;0.90;0.60;;;;;;;23.76;39.49;99676.91;1851947;76;28244;-46
2023/01/02 05:37:31;;;;;;;0.50;0.50;;;;;;;23.75;39.48;99668.39;1867768;75;28233;-45
2023/01/02 05:40:20;;;;;;;0.70;0.70;;;;;;;23.77;39.47;99671.73;1868586;76;28198;-46
2023/01/02 05:43:08;;;;;;;0.70;0.62;;;;;;;23.76;39.49;99672.79;1858496;76;28180;-46
2023/01/02 05:45:57;;;;;;;1.23;0.93;;;;;;;23.77;39.49;99684.08;1855593;76;28107;-46
2023/01/02 05:48:46;;;;;;;0.60;0.60;;;;;;;23.77;39.51;99679.44;1868795;75;28160;-46
2023/01/02 05:51:35;;;;;;;0.70;0.70;;;;;;;23.78;39.46;99676.97;1871907;75;28190;-49
2023/01/02 05:54:23;;;;;;;1.00;0.72;;;;;;;23.75;39.50;99687.59;1879318;76;31078;-47
2023/01/02 05:57:12;;;;;;;0.93;0.68;;;;;;;23.76;39.47;99686.50;1877614;76;28118;-46
2023/01/02 06:00:00;;;;;;;1.15;0.68;;;;;;;23.76;39.47;99697.48;1873855;76;28121;-48
2023/01/02 06:02:49;;;;;;;0.70;0.47;;;;;;;23.74;39.51;99699.10;1877654;76;28225;-49
2023/01/02 06:05:37;;;;;;;1.02;0.50;;;;;;;23.74;39.51;99711.44;1856369;76;28100;-45
2023/01/02 06:08:26;;;;;;;0.60;0.60;;;;;;;23.76;39.49;99708.45;1872016;76;28069;-46
2023/01/02 06:11:15;;;;;;;0.60;0.60;;;;;;;23.75;39.50;99710.91;1874425;76;28150;-47
2023/01/02 06:14:03;;;;;;;1.57;0.70;;;;;;;23.77;39.47;99697.79;1877848;75;28099;-45
2023/01/02 06:16:51;;;;;;;0.60;0.57;;;;;;;23.75;39.47;99704.90;1877939;76;28216;-45
2023/01/02 06:19:40;;;;;;;1.27;0.80;;;;;;;23.76;39.44;99700.22;1876897;76;28043;-45
2023/01/02 06:22:28;;;;;;;0.50;0.50;;;;;;;23.76;39.38;99696.95;1871089;76;28115;-46
2023/01/02 06:25:17;;;;;;;1.10;0.50;;;;;;;23.76;39.29;99701.06;1865928;75;28100;-44
2023/01/02 06:28:05;;;;;;;0.50;0.50;;;;;;;23.74;39.31;99696.89;1874745;76;28072;-44
2023/01/02 06:31:03;;;;;;;1.27;0.80;;;;;;;23.75;39.11;99704.05;1871268;76;28133;-44
2023/01/02 06:33:56;;;;;;;1.20;0.68;;;;;;;23.73;38.81;99699.34;1877760;76;28093;-45
2023/01/02 06:36:46;;;;;;;1.80;0.60;;;;;;;23.75;38.67;99697.20;1876254;76;28119;-45
2023/01/02 06:39:34;;;;;;;1.30;0.70;;;;;;;23.75;38.50;99707.64;1877781;76;28178;-46
2023/01/02 06:42:22;;;;;;;0.90;0.88;;;;;;;23.75;38.52;99705.42;1878188;76;28094;-44
2023/01/02 06:45:12;;;;;;;1.60;0.60;;;;;;;23.74;38.32;99710.07;1877011;76;28131;-45
2023/01/02 06:48:00;;;;;;;1.40;0.77;;;;;;;23.74;38.11;99710.07;1866189;76;28233;-46
2023/01/02 06:50:48;;;;;;;0.62;0.60;;;;;;;23.74;38.39;99707.33;1882074;75;28144;-46
2023/01/02 06:53:39;;;;;;;0.80;0.62;;;;;;;23.74;38.34;99705.11;1873698;76;28077;-43
2023/01/02 06:56:28;;;;;;;0.80;0.60;;;;;;;23.74;38.36;99711.97;1867803;76;28161;-44
2023/01/02 06:59:16;;;;;;;0.72;0.65;;;;;;;23.72;38.33;99717.70;1875991;76;28064;-43
2023/01/02 07:02:05;;;;;;;2.92;0.70;;;;;;;23.74;38.31;99701.00;1877762;76;28165;-44
2023/01/02 07:04:53;;;;;;;1.07;0.70;;;;;;;23.74;38.11;99722.94;1877855;76;28136;-44
2023/01/02 07:07:41;;;;;;;1.98;0.70;;;;;;;23.70;36.47;99734.94;1875562;74;28135;-44
2023/01/02 07:10:29;;;;;;;0.70;0.60;;;;;;;23.65;34.54;99729.84;1876255;76;28118;-44
2023/01/02 07:13:18;;;;;;;1.25;0.88;;;;;;;23.65;34.89;99729.32;1877904;76;28035;-43
2023/01/02 07:16:09;;;;;;;1.42;0.95;;;;;;;23.67;35.44;99720.84;1865358;76;28141;-45
2023/01/02 07:18:57;;;;;;;2.90;0.77;;;;;;;23.66;35.37;99727.42;1861709;76;28225;-45
2023/01/02 07:21:45;;;;;;;2.40;0.88;;;;;;;23.67;36.11;99727.70;1877700;76;28111;-44
2023/01/02 07:24:34;;;;;;;0.98;0.70;;;;;;;23.69;36.32;99725.55;1875059;76;28356;-45
2023/01/02 07:27:22;;;;;;;0.70;0.70;;;;;;;23.67;36.44;99732.66;1870939;76;28096;-45
2023/01/02 07:30:11;;;;;;;1.80;0.90;;;;;;;23.70;35.99;99730.83;1863206;76;28120;-44
2023/01/02 07:32:59;;;;;;;2.67;0.70;;;;;;;23.65;36.24;99722.46;1871195;76;28198;-46
2023/01/02 07:35:48;;;;;;;0.85;0.60;;;;;;;23.62;36.30;99728.97;1866476;74;28345;-47
2023/01/02 07:38:37;;;;;;;1.20;0.70;;;;;;;23.65;36.46;99722.99;1881906;74;28098;-46
2023/01/02 07:41:26;;;;;;;0.60;0.60;;;;;;;23.66;36.79;99721.94;1870229;74;28111;-48
2023/01/02 07:44:15;;;;;;;0.95;0.90;;;;;;;23.69;36.92;99726.40;1876026;76;28180;-45
2023/01/02 07:47:03;;;;;;;0.53;0.53;;;;;;;23.68;37.02;99734.34;1868879;76;28193;-47
2023/01/02 07:49:51;;;;;;;1.10;0.75;;;;;;;23.70;36.90;99728.61;1862012;74;28178;-46
2023/01/02 07:52:41;;;;;;;0.50;0.50;;;;;;;23.71;37.12;99721.50;1842834;74;28420;-47
2023/01/02 07:55:30;;;;;;;0.70;0.70;;;;;;;23.71;37.23;99724.81;1819632;77;28297;-45
2023/01/02 07:58:18;;;;;;;1.10;0.60;;;;;;;23.70;37.13;99716.27;1806167;77;28373;-48
2023/01/02 08:01:11;;;;;;;1.90;0.70;;;;;;;23.70;37.34;99729.98;1825569;77;28260;-46
2023/01/02 08:04:00;;;;;;;1.52;0.60;;;;;;;23.70;37.32;99728.61;1820836;77;28386;-45
2023/01/02 08:06:48;;;;;;;0.73;0.73;;;;;;;23.70;37.37;99728.08;1818286;77;28322;-47
2023/01/02 08:09:36;;;;;;;0.80;0.80;;;;;;;23.74;37.31;99725.69;1821663;77;28313;-46
2023/01/02 08:12:25;;;;;;;0.70;0.70;;;;;;;23.71;37.45;99735.22;1815988;77;28306;-43
2023/01/02 08:15:13;;;;;;;0.70;0.67;;;;;;;23.73;37.40;99732.27;1819897;77;28230;-44
2023/01/02 08:18:02;;;;;;;1.05;0.62;;;;;;;23.72;37.31;99726.46;1816513;77;28764;-44
2023/01/02 08:20:50;;;;;;;1.40;0.90;;;;;;;23.72;37.43;99734.16;1807363;77;28303;-45
2023/01/02 08:23:38;;;;;;;0.80;0.60;;;;;;;23.72;37.52;99723.72;1820582;76;28726;-47
2023/01/02 08:26:27;;;;;;;0.75;0.62;;;;;;;23.72;37.46;99722.34;1827875;76;28529;-46
2023/01/02 08:29:17;;;;;;;1.12;0.60;;;;;;;23.72;37.68;99741.55;1771851;80;28304;-45
2023/01/02 08:32:06;;;;;;;0.68;0.50;;;;;;;23.72;37.58;99726.46;1832765;77;28834;-45
2023/01/02 08:34:55;;;;;;;0.78;0.70;;;;;;;23.75;37.59;99745.20;1829175;77;28406;-48
2023/01/02 08:37:43;;;;;;;0.80;0.80;;;;;;;23.73;37.58;99750.09;1816628;77;28313;-47
2023/01/02 08:40:32;;;;;;;0.60;0.60;;;;;;;23.75;37.67;99738.34;1800232;78;28366;-48
2023/01/02 08:43:21;;;;;;;0.62;0.62;;;;;;;23.75;37.63;99738.34;1808518;78;28297;-45
2023/01/02 08:46:10;;;;;;;2.40;0.70;;;;;;;23.75;37.78;99729.58;1796919;77;28287;-46
2023/01/02 08:48:59;;;;;;;0.60;0.60;;;;;;;23.77;37.80;99738.94;1804356;78;28280;-46
2023/01/02 08:51:48;;;;;;;0.67;0.53;;;;;;;23.75;37.77;99726.84;1814815;76;28265;-46
2023/01/02 08:54:36;;;;;;;0.70;0.67;;;;;;;23.74;37.86;99742.98;1818941;75;28286;-48
2023/01/02 08:57:25;;;;;;;2.60;0.85;;;;;;;23.74;37.90;99747.09;1808777;78;28356;-50
2023/01/02 09:00:14;;;;;;;3.25;0.80;;;;;;;23.73;37.89;99746.81;1802505;76;28426;-46
2023/01/02 09:03:03;;;;;;;0.60;0.60;;;;;;;23.72;37.88;99762.96;1800158;78;28377;-45
2023/01/02 09:05:52;;;;;;;0.90;0.67;;;;;;;23.76;37.87;99761.94;1814467;77;28241;-47
2023/01/02 09:08:40;;;;;;;0.40;0.40;;;;;;;23.79;37.86;99762.84;1817184;77;28415;-49
2023/01/02 09:11:32;;;;;;;0.55;0.55;;;;;;;23.77;37.87;99766.37;1820336;77;28302;-46
2023/01/02 09:14:22;;;;;;;1.25;0.65;;;;;;;23.76;37.84;99779.77;1824141;77;28347;-47
2023/01/02 09:17:10;;;;;;;0.95;0.80;;;;;;;23.76;37.85;99779.77;1811212;78;28302;-47
2023/01/02 09:19:58;;;;;;;0.70;0.62;;;;;;;23.78;37.84;99792.18;1817040;77;28337;-46
2023/01/02 09:22:46;;;;;;;0.70;0.70;;;;;;;23.76;37.87;99794.86;1817849;77;28214;-45
2023/01/02 09:25:35;;;;;;;1.10;0.60;;;;;;;23.75;37.95;99776.22;1800675;77;28434;-46
2023/01/02 09:28:23;;;;;;;0.50;0.50;;;;;;;23.76;37.92;99786.09;1803859;77;28318;-46
2023/01/02 09:31:14;;;;;;;0.62;0.62;;;;;;;23.74;37.93;99780.02;1816713;77;31271;-46
2023/01/02 09:34:02;;;;;;;0.70;0.50;;;;;;;23.75;38.01;99782.23;1818955;76;27992;-48
2023/01/02 09:36:50;;;;;;;0.50;0.50;;;;;;;23.75;38.03;99784.45;1812485;77;28332;-49
2023/01/02 09:39:39;;;;;;;0.93;0.60;;;;;;;23.75;38.04;99809.13;1798208;77;28252;-45
2023/01/02 09:42:28;;;;;;;0.50;0.50;;;;;;;23.76;38.03;99804.45;1829502;77;28269;-45
2023/01/02 09:45:16;;;;;;;0.60;0.60;;;;;;;23.77;38.11;99815.75;1811639;77;28393;-46
2023/01/02 09:48:06;;;;;;;1.00;0.50;;;;;;;23.77;38.07;99799.28;1819843;77;28310;-45
2023/01/02 09:50:54;;;;;;;1.45;0.55;;;;;;;23.77;37.95;99800.66;1825554;77;28268;-44
2023/01/02 09:53:42;;;;;;;0.98;0.70;;;;;;;23.77;37.99;99789.16;1829664;74;28190;-43
2023/01/02 09:56:34;;;;;;;2.77;0.82;;;;;;;23.76;38.03;99804.45;1863718;76;28197;-48
2023/01/02 09:59:28;;;;;;;1.10;0.60;;;;;;;23.73;38.05;99807.16;1866568;76;28116;-48
2023/01/02 10:02:40;;;;;;;0.50;0.50;;;;;;;23.74;38.00;99801.96;1853095;76;28138;-45
2023/01/02 10:05:49;;;;;;;0.70;0.50;;;;;;;23.76;38.12;99807.20;1867321;76;28153;-46
2023/01/02 10:08:50;;;;;;;1.40;0.60;;;;;;;23.73;38.13;99814.55;1856660;76;28612;-44
2023/01/02 10:12:05;;;;;;;0.75;0.60;;;;;;;23.74;38.17;99828.55;1846089;77;28234;-45
2023/01/02 10:15:06;;;;;;;0.60;0.60;;;;;;;23.74;38.17;99828.55;1841489;76;28153;-45
2023/01/02 10:17:57;;;;;;;1.00;0.68;;;;;;;23.72;38.25;99837.02;1859592;76;28178;-46
2023/01/02 10:20:48;;;;;;;2.70;0.60;;;;;;;23.72;38.21;99826.58;1859460;76;28141;-44
2023/01/02 10:23:56;;;;;;;2.08;0.80;;;;;;;23.74;38.32;99831.29;1853037;77;28071;-44
2023/01/02 10:26:48;;;;;;;0.53;0.50;;;;;;;23.76;38.23;99831.36;1859639;76;28171;-44
2023/01/02 10:29:39;;;;;;;0.60;0.55;;;;;;;23.75;38.26;99815.15;1856375;76;28056;-44
2023/01/02 10:32:28;;;;;;;0.70;0.40;;;;;;;23.76;38.23;99827.77;1853962;77;32084;-46
2023/01/02 10:35:35;;;;;;;0.75;0.50;;;;;;;23.79;38.22;99825.94;1867342;76;32046;-44
2023/01/02 10:38:24;;;;;;;0.82;0.60;;;;;;;23.77;38.18;99817.12;1853129;76;28118;-44
2023/01/02 10:41:12;;;;;;;0.80;0.53;;;;;;;23.75;38.29;99802.80;1855687;77;28184;-44
2023/01/02 10:44:03;;;;;;;1.00;0.42;;;;;;;23.75;38.30;99825.59;1868103;76;28107;-43
2023/01/02 10:46:52;;;;;;;1.30;0.60;;;;;;;23.77;38.30;99802.03;1855914;77;28269;-44
2023/01/02 10:49:43;;;;;;;0.65;0.60;;;;;;;23.78;38.26;99834.70;1850715;77;28231;-44
2023/01/02 10:52:52;;;;;;;0.50;0.50;;;;;;;23.78;38.31;99819.61;1854008;77;28103;-47
2023/01/02 10:55:44;;;;;;;0.68;0.68;;;;;;;23.78;38.27;99818.80;1855861;74;38352;-44
2023/01/02 10:58:34;;;;;;;1.20;0.60;;;;;;;23.76;38.31;99813.53;1868180;76;28208;-45
2023/01/02 11:01:23;;;;;;;2.10;0.80;;;;;;;23.77;38.33;99836.31;1867947;75;28155;-45
2023/01/02 11:04:14;;;;;;;0.50;0.50;;;;;;;23.77;38.30;99817.12;1868439;76;28162;-46
2023/01/02 11:07:04;;;;;;;0.60;0.60;;;;;;;23.76;38.29;99820.91;1854222;76;28155;-45
2023/01/02 11:09:57;;;;;;;0.70;0.62;;;;;;;23.78;38.28;99835.27;1871834;76;31952;-46
2023/01/02 11:12:49;;;;;;;0.95;0.75;;;;;;;23.78;38.31;99831.95;1835765;77;28112;-50
2023/01/02 11:15:52;;;;;;;1.07;0.60;;;;;;;23.76;38.40;99822.29;1833292;77;28329;-48
2023/01/02 11:18:44;;;;;;;1.00;0.80;;;;;;;23.76;38.40;99823.66;1856237;77;28198;-45
2023/01/02 11:21:35;;;;;;;0.70;0.68;;;;;;;23.76;38.34;99827.77;1862787;76;28063;-47
2023/01/02 11:24:26;;;;;;;1.07;0.90;;;;;;;23.76;38.40;99822.29;1868000;75;28181;-45
2023/01/02 11:27:13;;;;;;;0.90;0.80;;;;;;;23.75;38.37;99831.08;1847751;76;28125;-44
2023/01/02 11:30:03;;;;;;;2.45;0.98;;;;;;;23.74;38.29;99821.16;1849576;76;28057;-44
2023/01/02 11:33:07;;;;;;;1.70;0.72;;;;;;;23.75;38.36;99831.61;1848090;76;28117;-48
2023/01/02 11:36:07;;;;;;;1.10;0.75;;;;;;;23.78;38.31;99825.66;1868035;76;28211;-45
2023/01/02 11:38:56;;;;;;;1.77;0.90;;;;;;;23.74;38.36;99834.88;1852876;77;28257;-45
2023/01/02 11:45:19;;;;;;;2.67;0.90;;;;;;;23.74;38.32;99816.20;1853621;76;28168;-44
2023/01/02 11:48:11;;;;;;;1.67;0.82;;;;;;;23.72;38.33;99841.14;1856362;77;28134;-47
2023/01/02 11:50:59;;;;;;;1.40;0.85;;;;;;;23.72;38.29;99843.03;1852728;77;28207;-46
2023/01/02 11:53:51;;;;;;;1.22;1.12;;;;;;;23.72;38.38;99840.30;1856419;76;28159;-44
2023/01/02 11:56:42;;;;;;;1.90;1.50;;;;;;;23.72;38.39;99843.03;1848273;77;28257;-45
2023/01/02 11:59:40;;;;;;;1.30;1.20;;;;;;;23.73;38.39;99818.14;1864825;76;28194;-46
2023/01/02 12:02:31;;;;;;;2.85;1.17;;;;;;;23.75;38.31;99837.09;1878936;74;28175;-46
2023/01/02 12:05:25;;;;;;;1.30;1.20;;;;;;;23.75;38.42;99833.82;1872776;76;28626;-49
2023/01/02 12:08:26;;;;;;;2.40;1.10;;;;;;;23.78;38.33;99829.77;1872396;75;28250;-44
2023/01/02 12:11:23;;;;;;;1.77;0.95;;;;;;;23.74;38.30;99831.29;1844884;76;28376;-44
2023/01/02 12:14:16;;;;;;;1.10;1.10;;;;;;;23.75;38.33;99824.75;1868177;76;28103;-45
2023/01/02 12:17:14;;;;;;;1.13;1.13;;;;;;;23.72;38.36;99810.97;1880544;76;28254;-44
2023/01/02 12:20:39;;;;;;;2.02;1.20;;;;;;;23.72;38.38;99832.06;1877974;76;28229;-44
2023/01/02 12:23:37;;;;;;;2.60;1.10;;;;;;;23.73;38.36;99831.01;1879060;75;28704;-44
2023/01/02 12:26:40;;;;;;;2.20;1.15;;;;;;;23.70;38.41;99820.49;1868419;76;28300;-45
2023/01/02 12:29:40;;;;;;;1.27;1.20;;;;;;;23.72;38.39;99829.32;1848751;76;28199;-45
2023/01/02 12:32:51;;;;;;;2.58;1.20;;;;;;;23.70;38.40;99830.94;1871488;74;28177;-46
2023/01/02 12:36:15;;;;;;;2.17;1.50;;;;;;;23.69;38.44;99823.77;1880724;75;28234;-44
2023/01/02 12:39:41;;;;;;;1.45;1.30;;;;;;;23.61;38.34;99850.70;1879135;75;28156;-44
2023/01/02 12:42:39;;;;;;;2.77;1.17;;;;;;;23.27;38.88;99836.55;1879198;75;31175;-43
2023/01/02 12:45:36;;;;;;;2.10;1.42;;;;;;;23.09;39.26;99835.22;1870952;76;28194;-44
2023/01/02 12:48:41;;;;;;;1.37;1.27;;;;;;;23.00;39.51;99843.44;1867364;76;28143;-45
2023/01/02 12:51:41;;;;;;;2.10;1.47;;;;;;;22.97;39.62;99818.39;1868488;76;28145;-46
2023/01/02 12:55:01;;;;;;;1.20;1.20;;;;;;;22.91;39.79;99837.12;1861318;76;28306;-43
2023/01/02 12:58:19;;;;;;;2.85;1.42;;;;;;;22.89;39.90;99843.37;1864825;75;28216;-46
2023/01/02 13:01:19;;;;;;;3.17;1.20;;;;;;;22.81;39.99;99856.83;1868255;74;28184;-47
2023/01/02 13:04:16;;;;;;;1.90;1.12;;;;;;;22.78;40.13;99868.22;1871247;75;28156;-44
2023/01/02 13:07:20;;;;;;;3.22;1.32;;;;;;;22.75;40.22;99861.86;1855850;77;28295;-45
2023/01/02 13:10:11;;;;;;;1.45;1.20;;;;;;;22.77;40.29;99853.40;1867714;76;28115;-43
2023/01/02 13:13:01;;;;;;;1.30;1.27;;;;;;;22.77;40.29;99861.62;1858058;76;28157;-44
2023/01/02 13:15:52;;;;;;;1.92;1.20;;;;;;;22.81;40.27;99861.45;1856032;77;28338;-44
2023/01/02 13:18:43;;;;;;;2.27;1.30;;;;;;;22.81;40.24;99875.16;1837286;77;28166;-45
2023/01/02 13:21:50;;;;;;;1.90;1.30;;;;;;;22.80;40.33;99878.98;1860960;76;28258;-44
2023/01/02 13:24:38;;;;;;;1.42;1.05;;;;;;;22.80;40.37;99883.89;1827306;76;28101;-43
2023/01/02 13:27:27;;;;;;;1.22;1.12;;;;;;;22.78;40.43;99871.52;1868025;76;28145;-46
2023/01/02 13:30:37;;;;;;;1.30;1.20;;;;;;;22.79;40.39;99871.81;1856173;77;28165;-46
2023/01/02 13:33:34;;;;;;;1.27;1.17;;;;;;;22.82;40.40;99884.53;1738608;81;35502;-43
2023/01/02 13:36:29;;;;;;;1.05;0.95;;;;;;;22.78;40.41;99881.92;1862141;76;28050;-45
2023/01/02 13:39:20;;;;;;;1.20;1.20;;;;;;;22.78;40.51;99890.69;1870810;75;28152;-43